This is the latest recevied weather packets stored in our database for station/object IW1RID-3. If no packets are shown the sender has not sent any weather packets the latest 10 day(s).
| Time | Temp. | Humidity | Pressure | Rain* | Wind** | Luminosity | Snow |
|---|---|---|---|---|---|---|---|
| 1777425185 | 11.67° C | 80% | 1073.4 hPa | - | - | - | - |
| 1777423981 | 12.22° C | 77% | 1073.5 hPa | - | - | - | - |
| 1777422776 | 11.67° C | 80% | 1073.5 hPa | - | - | - | - |
| 1777421571 | 12.22° C | 79% | 1073.5 hPa | - | - | - | - |
| 1777420366 | 12.22° C | 80% | 1073.6 hPa | - | - | - | - |
| 1777419162 | 12.22° C | 81% | 1073.5 hPa | - | - | - | - |
| 1777417957 | 12.78° C | 80% | 1073.6 hPa | - | - | - | - |
| 1777416752 | 12.78° C | 80% | 1073.2 hPa | - | - | - | - |
| 1777415547 | 12.78° C | 82% | 1073 hPa | - | - | - | - |
| 1777414342 | 13.33° C | 84% | 1073 hPa | - | - | - | - |
| 1777413136 | 13.33° C | 85% | 1072.9 hPa | - | - | - | - |
| 1777411931 | 13.33° C | 87% | 1072.9 hPa | - | - | - | - |
| 1777410727 | 13.89° C | 88% | 1073.1 hPa | - | - | - | - |
| 1777408316 | 14.44° C | 88% | 1073.3 hPa | - | - | - | - |
| 1777407112 | 14.44° C | 87% | 1073.4 hPa | - | - | - | - |
| 1777405906 | 15° C | 86% | 1073.4 hPa | - | - | - | - |
| 1777404701 | 15.56° C | 83% | 1073.3 hPa | - | - | - | - |
| 1777403493 | 16.11° C | 80% | 1072.9 hPa | - | - | - | - |
| 1777402289 | 16.67° C | 79% | 1072.8 hPa | - | - | - | - |
| 1777401084 | 17.78° C | 76% | 1072.7 hPa | - | - | - | - |
| 1777399879 | 17.78° C | 76% | 1072.7 hPa | - | - | - | - |
| 1777397469 | 17.78° C | 75% | 1072.7 hPa | - | - | - | - |
| 1777396264 | 18.33° C | 74% | 1072.7 hPa | - | - | - | - |
| 1777395060 | 20.56° C | 65% | 1072.8 hPa | - | - | - | - |
| 1777393854 | 20° C | 66% | 1072.8 hPa | - | - | - | - |
* Rain since midnight (hover to see other rain measurements)
** Current wind speed in m/s (hover to see current wind gust speed)